Time;durP1;ratioP1;P1;durP2;ratioP2;P2;SDS_P1;SDS_P2;PMS_P1;PMS_P2;Temp;Humidity;BMP_temperature;BMP_pressure;BME280_temperature;BME280_humidity;BME280_pressure;Samples;Min_cycle;Max_cycle;Signal;HPM_P1;HPM_P2
2022/06/26 00:02:25;;;;;;;1.12;0.82;;;21.60;99.90;;;;;;4307272;33;20095;-68
2022/06/26 00:04:50;;;;;;;1.60;0.90;;;21.60;99.90;;;;;;4304787;33;20081;-68
2022/06/26 00:07:16;;;;;;;1.12;1.05;;;21.60;99.90;;;;;;4303302;33;20473;-68
2022/06/26 00:09:42;;;;;;;0.85;0.80;;;21.50;99.90;;;;;;4307372;33;20084;-68
2022/06/26 00:12:08;;;;;;;0.95;0.82;;;21.50;99.90;;;;;;4307067;33;20148;-68
2022/06/26 00:14:34;;;;;;;0.60;0.60;;;21.50;99.90;;;;;;4307151;33;20187;-68
2022/06/26 00:16:59;;;;;;;1.95;1.45;;;21.60;99.90;;;;;;4306341;33;20083;-68
2022/06/26 00:19:25;;;;;;;1.30;0.75;;;21.60;99.90;;;;;;4306609;33;20085;-68
2022/06/26 00:21:51;;;;;;;1.05;0.95;;;21.50;99.90;;;;;;4293346;33;20403;-68
2022/06/26 00:24:16;;;;;;;1.00;0.70;;;21.50;99.90;;;;;;4286357;33;20113;-68
2022/06/26 00:26:42;;;;;;;1.23;1.12;;;21.40;99.90;;;;;;4303620;33;20121;-68
2022/06/26 00:29:08;;;;;;;1.62;0.65;;;21.40;99.90;;;;;;4307021;33;20091;-68
2022/06/26 00:31:34;;;;;;;0.98;0.82;;;21.50;99.90;;;;;;4308501;33;20548;-68
2022/06/26 00:33:59;;;;;;;0.62;0.62;;;21.50;99.90;;;;;;4306364;33;20120;-68
2022/06/26 00:36:25;;;;;;;1.37;0.95;;;21.30;99.90;;;;;;4306198;33;20101;-68
2022/06/26 00:38:51;;;;;;;3.12;0.70;;;21.30;99.90;;;;;;4306772;33;20076;-68
2022/06/26 00:41:16;;;;;;;1.83;0.90;;;21.40;99.90;;;;;;4306969;33;20071;-68
2022/06/26 00:43:42;;;;;;;0.80;0.80;;;21.50;99.90;;;;;;4306053;33;20063;-68
2022/06/26 00:46:07;;;;;;;0.60;0.60;;;21.40;99.90;;;;;;4305479;33;20080;-68
2022/06/26 00:48:33;;;;;;;5.00;1.08;;;21.50;99.90;;;;;;4304470;33;20064;-68
2022/06/26 00:50:59;;;;;;;0.52;0.52;;;21.50;99.90;;;;;;4299942;33;20163;-68
2022/06/26 00:53:24;;;;;;;12.07;2.15;;;21.50;99.90;;;;;;4282984;33;20092;-68
2022/06/26 00:55:50;;;;;;;0.68;0.65;;;21.40;99.90;;;;;;4299067;33;20582;-68
2022/06/26 00:58:16;;;;;;;2.17;0.80;;;21.20;99.90;;;;;;4306576;33;20544;-68
2022/06/26 01:00:42;;;;;;;0.60;0.60;;;21.20;99.90;;;;;;4308204;33;20166;-68
2022/06/26 01:03:08;;;;;;;1.45;0.90;;;21.10;99.90;;;;;;4306141;33;20081;-68
2022/06/26 01:05:34;;;;;;;0.70;0.70;;;21.10;99.90;;;;;;4304724;33;20499;-68
2022/06/26 01:07:59;;;;;;;1.27;0.77;;;21.10;99.90;;;;;;4307796;33;20103;-68
2022/06/26 01:10:25;;;;;;;1.02;0.65;;;21.20;99.90;;;;;;4303658;33;20079;-68
2022/06/26 01:12:51;;;;;;;0.70;0.70;;;21.10;99.90;;;;;;4306315;33;20068;-68
2022/06/26 01:15:18;;;;;;;1.45;1.17;;;21.10;99.90;;;;;;4305578;33;20290;-68
2022/06/26 01:17:44;;;;;;;2.33;1.20;;;21.10;99.90;;;;;;4306915;33;20127;-68
2022/06/26 01:20:10;;;;;;;0.80;0.80;;;21.10;99.90;;;;;;4304106;33;20533;-68
2022/06/26 01:22:35;;;;;;;0.70;0.70;;;21.10;99.90;;;;;;4282116;33;20481;-68
2022/06/26 01:25:01;;;;;;;17.65;1.62;;;21.10;99.90;;;;;;4290632;33;20092;-68
2022/06/26 01:27:26;;;;;;;3.28;1.62;;;21.00;99.90;;;;;;4303636;33;20100;-68
2022/06/26 01:29:52;;;;;;;1.85;1.42;;;21.00;99.90;;;;;;4303308;33;20098;-68
2022/06/26 01:32:53;;;;;;;1.62;1.23;;;21.00;99.90;;;;;;4452857;32;146062;-67
2022/06/26 01:35:19;;;;;;;1.15;0.90;;;20.90;99.90;;;;;;4461619;32;20057;-67
2022/06/26 01:37:44;;;;;;;0.88;0.80;;;20.90;99.90;;;;;;4459158;32;20226;-67
2022/06/26 01:40:10;;;;;;;0.70;0.70;;;21.00;99.90;;;;;;4458984;32;20077;-67
2022/06/26 01:42:36;;;;;;;4.00;1.20;;;20.90;99.90;;;;;;4455138;32;20080;-67
2022/06/26 01:45:01;;;;;;;3.08;1.40;;;20.80;99.90;;;;;;4458100;32;20068;-67
2022/06/26 01:47:26;;;;;;;3.05;2.10;;;20.80;99.90;;;;;;4459932;32;20136;-67
2022/06/26 01:49:52;;;;;;;0.50;0.50;;;20.70;99.90;;;;;;4458752;32;20084;-67
2022/06/26 01:52:17;;;;;;;2.87;1.10;;;20.80;99.90;;;;;;4441018;32;20061;-67
2022/06/26 01:54:43;;;;;;;7.15;1.70;;;20.80;99.90;;;;;;4443125;32;20104;-68
2022/06/26 01:57:08;;;;;;;1.45;0.98;;;20.80;99.90;;;;;;4459081;32;20093;-68
2022/06/26 01:59:34;;;;;;;1.45;0.80;;;20.80;99.90;;;;;;4458844;32;20072;-68
2022/06/26 02:01:59;;;;;;;3.05;1.25;;;20.80;99.90;;;;;;4458450;32;20076;-68
2022/06/26 02:04:25;;;;;;;2.00;0.85;;;20.80;99.90;;;;;;4459141;32;20110;-67
2022/06/26 02:06:50;;;;;;;1.25;1.15;;;20.70;99.90;;;;;;4460426;32;20072;-67
2022/06/26 02:14:01;;;;;;;1.00;0.95;;;20.60;99.90;;;;;;4455843;32;20130;-67
2022/06/26 02:14:47;;;;;;;1.87;0.95;;;20.70;99.90;;;;;;4460461;32;20671;-67
2022/06/26 02:17:12;;;;;;;1.87;0.88;;;20.70;99.90;;;;;;4456898;32;20128;-67
2022/06/26 02:19:37;;;;;;;2.00;1.02;;;20.60;99.90;;;;;;4449916;32;20405;-67
2022/06/26 02:22:03;;;;;;;0.70;0.70;;;20.70;99.90;;;;;;4432308;32;20123;-67
2022/06/26 02:24:29;;;;;;;1.95;1.15;;;20.70;99.90;;;;;;4433906;32;20419;-68
2022/06/26 02:26:54;;;;;;;0.77;0.65;;;20.70;99.90;;;;;;4456673;32;20448;-67
2022/06/26 02:29:20;;;;;;;0.95;0.80;;;20.60;99.90;;;;;;4453616;32;20080;-68
2022/06/26 02:31:45;;;;;;;1.35;1.00;;;20.50;99.90;;;;;;4449123;32;20081;-67
2022/06/26 02:34:10;;;;;;;3.33;1.12;;;20.60;99.90;;;;;;4445325;32;20089;-67
2022/06/26 02:36:36;;;;;;;1.25;1.02;;;20.60;99.90;;;;;;4458813;32;20085;-67
2022/06/26 02:39:02;;;;;;;1.35;0.70;;;20.60;99.90;;;;;;4448279;32;20386;-67
2022/06/26 02:41:27;;;;;;;13.15;1.55;;;20.70;99.90;;;;;;4447564;32;20178;-67
2022/06/26 02:43:53;;;;;;;1.15;1.00;;;20.70;99.90;;;;;;4441861;32;20533;-67
2022/06/26 02:46:18;;;;;;;0.82;0.70;;;20.60;99.90;;;;;;4445128;32;20065;-67
2022/06/26 02:48:44;;;;;;;2.47;0.75;;;20.50;99.90;;;;;;4438284;32;20080;-67
2022/06/26 02:51:10;;;;;;;2.45;1.40;;;20.50;99.90;;;;;;4426905;32;20544;-67
2022/06/26 02:53:35;;;;;;;1.10;0.90;;;20.50;99.90;;;;;;4414876;32;20155;-68
2022/06/26 02:56:01;;;;;;;1.95;1.42;;;20.60;99.90;;;;;;4440423;32;20062;-67
2022/06/26 02:58:26;;;;;;;0.70;0.70;;;20.60;99.90;;;;;;4444243;32;20105;-67
2022/06/26 03:00:51;;;;;;;1.98;1.00;;;20.70;99.90;;;;;;4441603;32;20120;-67
2022/06/26 03:03:17;;;;;;;1.08;0.80;;;20.60;99.90;;;;;;4441461;32;20082;-67
2022/06/26 03:05:43;;;;;;;2.45;1.62;;;20.60;99.90;;;;;;4438609;32;20138;-67
2022/06/26 03:08:08;;;;;;;1.60;0.98;;;20.50;99.90;;;;;;4446407;32;20422;-67
2022/06/26 03:10:34;;;;;;;2.83;1.25;;;20.40;99.90;;;;;;4440383;32;20061;-67
2022/06/26 03:13:00;;;;;;;0.70;0.70;;;20.40;99.90;;;;;;4439896;32;20069;-67
2022/06/26 03:15:25;;;;;;;1.10;0.90;;;20.40;99.90;;;;;;4438415;32;20070;-67
2022/06/26 03:17:51;;;;;;;2.28;1.00;;;20.50;99.90;;;;;;4442426;32;20072;-67
2022/06/26 03:20:18;;;;;;;1.42;0.70;;;20.50;99.90;;;;;;4442487;32;20085;-67
2022/06/26 03:22:45;;;;;;;1.60;1.35;;;20.50;99.90;;;;;;4423020;32;20550;-68
2022/06/26 03:25:10;;;;;;;1.23;0.82;;;20.60;99.90;;;;;;4427837;32;20115;-68
2022/06/26 03:27:36;;;;;;;1.35;1.00;;;20.60;99.90;;;;;;4438881;32;20244;-67
2022/06/26 03:30:03;;;;;;;1.83;1.17;;;20.60;99.90;;;;;;4441798;32;20084;-67
2022/06/26 03:32:29;;;;;;;2.05;1.17;;;20.60;99.90;;;;;;4440281;32;20072;-68
2022/06/26 03:34:54;;;;;;;5.12;1.23;;;20.60;99.90;;;;;;4437137;32;20814;-67
2022/06/26 03:37:20;;;;;;;0.80;0.68;;;20.70;99.90;;;;;;4436947;32;20458;-67
2022/06/26 03:39:46;;;;;;;3.40;1.12;;;20.70;99.90;;;;;;4438653;32;20060;-67
2022/06/26 03:42:11;;;;;;;2.87;0.98;;;20.80;99.90;;;;;;4438192;32;20168;-67
2022/06/26 03:44:36;;;;;;;0.95;0.93;;;20.80;99.90;;;;;;4438299;32;20105;-67
2022/06/26 03:47:02;;;;;;;3.47;1.25;;;20.80;99.90;;;;;;4440172;32;20088;-68
2022/06/26 03:49:28;;;;;;;2.17;1.05;;;20.90;99.90;;;;;;4439092;32;20069;-67
2022/06/26 03:51:53;;;;;;;2.20;1.20;;;20.90;99.90;;;;;;4425619;32;21531;-67
2022/06/26 03:54:19;;;;;;;3.33;1.23;;;20.90;99.90;;;;;;4415286;32;20286;-67
2022/06/26 03:56:46;;;;;;;1.35;0.93;;;20.80;99.90;;;;;;4436951;32;20127;-67
2022/06/26 03:59:11;;;;;;;0.75;0.75;;;20.90;99.90;;;;;;4438408;32;20514;-67
2022/06/26 04:01:37;;;;;;;1.73;1.10;;;20.90;99.90;;;;;;4440696;32;20093;-67
2022/06/26 04:04:02;;;;;;;2.30;1.25;;;21.00;99.90;;;;;;4444300;32;20060;-67
2022/06/26 04:06:28;;;;;;;3.05;1.23;;;21.00;99.90;;;;;;4441446;32;20073;-67
2022/06/26 04:08:54;;;;;;;1.87;0.88;;;21.10;99.90;;;;;;4441118;32;20120;-68
2022/06/26 04:11:19;;;;;;;2.15;1.58;;;21.20;99.90;;;;;;4436975;32;20094;-68
2022/06/26 04:13:45;;;;;;;1.58;0.98;;;21.30;99.90;;;;;;4438583;32;20142;-68
2022/06/26 04:16:10;;;;;;;1.08;0.98;;;21.50;99.90;;;;;;4442907;32;20089;-67
2022/06/26 04:18:36;;;;;;;1.75;1.20;;;21.60;99.90;;;;;;4438294;32;20080;-68
2022/06/26 04:21:02;;;;;;;2.10;0.60;;;21.70;99.90;;;;;;4438689;32;20120;-67
2022/06/26 04:23:27;;;;;;;0.70;0.70;;;21.70;99.90;;;;;;4416093;32;20089;-68
2022/06/26 04:25:53;;;;;;;1.10;0.95;;;21.80;99.90;;;;;;4431772;32;20105;-68
2022/06/26 04:28:18;;;;;;;0.62;0.62;;;21.80;99.90;;;;;;4439588;32;20561;-67
2022/06/26 04:30:44;;;;;;;3.00;0.77;;;21.90;99.90;;;;;;4438458;32;20161;-67
2022/06/26 04:33:09;;;;;;;0.52;0.52;;;22.00;99.90;;;;;;4445811;32;20101;-67
2022/06/26 04:35:35;;;;;;;0.68;0.68;;;22.00;99.90;;;;;;4435571;32;20096;-67
2022/06/26 04:38:01;;;;;;;1.10;0.90;;;22.00;99.90;;;;;;4440972;32;20102;-67
2022/06/26 04:40:27;;;;;;;0.95;0.85;;;22.10;99.90;;;;;;4443440;32;20541;-67
2022/06/26 04:42:53;;;;;;;0.60;0.60;;;22.00;99.90;;;;;;4439714;32;20068;-67
2022/06/26 04:45:19;;;;;;;2.35;1.08;;;22.00;99.90;;;;;;4439165;32;20112;-67
2022/06/26 04:47:45;;;;;;;0.73;0.52;;;22.00;99.90;;;;;;4439983;32;20060;-68
2022/06/26 04:50:10;;;;;;;1.40;0.80;;;22.10;99.90;;;;;;4439867;32;20078;-67
2022/06/26 04:52:36;;;;;;;1.95;0.80;;;22.10;99.90;;;;;;4418978;32;20073;-68
2022/06/26 04:55:02;;;;;;;0.60;0.60;;;22.10;99.90;;;;;;4423684;32;20069;-67
2022/06/26 04:57:27;;;;;;;0.43;0.43;;;22.10;99.90;;;;;;4437838;32;20072;-68
2022/06/26 04:59:53;;;;;;;0.75;0.75;;;22.20;99.90;;;;;;4441517;32;20479;-67
2022/06/26 05:02:19;;;;;;;1.12;0.65;;;22.10;99.90;;;;;;4439944;32;20122;-67
2022/06/26 05:04:44;;;;;;;1.05;0.85;;;22.10;99.90;;;;;;4439006;32;20578;-67
2022/06/26 05:07:10;;;;;;;1.55;1.05;;;22.20;99.90;;;;;;4438944;32;20060;-68
2022/06/26 05:09:36;;;;;;;0.62;0.62;;;22.30;99.90;;;;;;4440272;32;20124;-68
2022/06/26 05:12:01;;;;;;;3.33;1.37;;;22.30;99.90;;;;;;4438954;32;20069;-68
2022/06/26 05:14:27;;;;;;;1.17;0.93;;;22.30;99.90;;;;;;4439234;32;20548;-67
2022/06/26 05:16:52;;;;;;;1.58;1.08;;;22.30;99.90;;;;;;4441020;32;20823;-67
2022/06/26 05:19:18;;;;;;;1.30;0.88;;;22.30;99.90;;;;;;4441973;32;20061;-67
2022/06/26 05:21:44;;;;;;;1.37;0.82;;;22.30;99.90;;;;;;4427045;32;20570;-68
2022/06/26 05:24:09;;;;;;;1.98;0.55;;;22.30;99.90;;;;;;4416599;32;20089;-68
2022/06/26 05:26:35;;;;;;;1.35;0.65;;;22.30;99.90;;;;;;4443373;32;20076;-67
2022/06/26 05:29:01;;;;;;;0.40;0.40;;;22.40;99.90;;;;;;4440278;32;20579;-68
2022/06/26 05:31:26;;;;;;;0.95;0.77;;;22.40;99.90;;;;;;4439083;32;20077;-68
2022/06/26 05:33:52;;;;;;;1.45;1.02;;;22.40;99.90;;;;;;4438760;32;20139;-68
2022/06/26 05:36:18;;;;;;;0.60;0.60;;;22.50;99.90;;;;;;4439742;32;20065;-68
2022/06/26 05:38:43;;;;;;;1.70;0.90;;;22.50;99.90;;;;;;4440698;32;20116;-67
2022/06/26 05:41:09;;;;;;;0.65;0.65;;;22.50;99.90;;;;;;4436229;32;20081;-67
2022/06/26 05:43:35;;;;;;;0.65;0.65;;;22.60;99.90;;;;;;4434756;32;20153;-68
2022/06/26 05:46:01;;;;;;;1.10;0.90;;;22.60;99.90;;;;;;4439590;32;20064;-68
2022/06/26 05:48:26;;;;;;;1.67;1.05;;;22.80;99.90;;;;;;4441138;32;20106;-68
2022/06/26 05:50:52;;;;;;;0.52;0.52;;;22.80;99.90;;;;;;4446285;32;20065;-68
2022/06/26 05:53:18;;;;;;;6.47;1.23;;;22.90;99.90;;;;;;4416396;32;20138;-68
2022/06/26 05:55:44;;;;;;;0.45;0.45;;;23.00;99.90;;;;;;4438955;32;20441;-68
2022/06/26 05:58:10;;;;;;;1.15;0.93;;;23.10;99.90;;;;;;4441924;32;21465;-68
2022/06/26 06:00:36;;;;;;;0.50;0.50;;;23.20;99.90;;;;;;4437432;32;20082;-67
2022/06/26 06:03:02;;;;;;;0.68;0.65;;;23.20;99.90;;;;;;4443189;32;20085;-68
2022/06/26 06:05:27;;;;;;;0.70;0.55;;;23.30;99.90;;;;;;4436842;32;20073;-68
2022/06/26 06:07:54;;;;;;;0.50;0.50;;;23.30;99.90;;;;;;4437126;32;20133;-68
2022/06/26 06:10:20;;;;;;;0.70;0.68;;;23.40;99.90;;;;;;4445436;32;20069;-68
2022/06/26 06:12:46;;;;;;;0.57;0.57;;;23.50;99.90;;;;;;4440591;32;20088;-68
2022/06/26 06:15:12;;;;;;;0.68;0.68;;;23.50;99.90;;;;;;4437487;32;20084;-68
2022/06/26 06:17:41;;;;;;;0.70;0.60;;;23.50;99.90;;;;;;4441026;32;20537;-68
2022/06/26 06:20:11;;;;;;;0.35;0.35;;;23.50;99.90;;;;;;4445844;32;20599;-68
2022/06/26 06:22:38;;;;;;;0.52;0.52;;;23.60;99.90;;;;;;4422795;32;20514;-68
2022/06/26 06:25:04;;;;;;;0.40;0.40;;;23.80;99.90;;;;;;4422400;32;20085;-68
2022/06/26 06:27:29;;;;;;;0.40;0.40;;;23.90;99.90;;;;;;4441031;32;20564;-68
2022/06/26 06:29:55;;;;;;;0.82;0.62;;;24.10;99.90;;;;;;4441219;32;20073;-68
2022/06/26 06:32:20;;;;;;;0.50;0.50;;;24.20;99.90;;;;;;4447242;32;20085;-68
2022/06/26 06:34:46;;;;;;;2.05;0.60;;;24.30;99.90;;;;;;4437595;32;20484;-68
2022/06/26 06:37:11;;;;;;;0.30;0.30;;;24.30;99.90;;;;;;4437927;32;20061;-68
2022/06/26 06:39:37;;;;;;;0.40;0.35;;;24.40;99.90;;;;;;4439164;32;20140;-68
2022/06/26 06:42:03;;;;;;;0.40;0.40;;;24.40;99.90;;;;;;4449151;32;20077;-68
2022/06/26 06:44:28;;;;;;;0.30;0.30;;;24.50;99.90;;;;;;4440136;32;20068;-68
2022/06/26 06:46:54;;;;;;;0.37;0.37;;;24.50;99.90;;;;;;4441905;32;20128;-68
2022/06/26 06:49:19;;;;;;;0.30;0.30;;;24.60;99.90;;;;;;4438553;32;20519;-68
2022/06/26 06:51:45;;;;;;;0.30;0.30;;;24.80;99.90;;;;;;4429216;32;20089;-68
2022/06/26 06:54:10;;;;;;;0.62;0.47;;;24.90;99.90;;;;;;4414998;32;20066;-68
2022/06/26 06:56:36;;;;;;;1.65;0.95;;;24.90;99.90;;;;;;4438945;32;20123;-68
2022/06/26 06:59:02;;;;;;;0.45;0.45;;;25.10;99.90;;;;;;4438876;32;20143;-68
2022/06/26 07:01:27;;;;;;;0.37;0.37;;;25.10;99.90;;;;;;4441443;32;20120;-68
2022/06/26 07:03:52;;;;;;;0.30;0.30;;;25.10;99.90;;;;;;4439984;32;20069;-68
2022/06/26 07:06:18;;;;;;;0.80;0.57;;;25.30;99.90;;;;;;4440756;32;20065;-68
2022/06/26 07:08:43;;;;;;;0.43;0.40;;;25.30;99.90;;;;;;4437821;32;20065;-68
2022/06/26 07:11:09;;;;;;;0.95;0.75;;;25.30;99.90;;;;;;4445307;32;20132;-68
2022/06/26 07:13:34;;;;;;;0.68;0.68;;;25.40;99.90;;;;;;4437634;32;20088;-68
2022/06/26 07:16:01;;;;;;;0.52;0.43;;;25.40;99.90;;;;;;4443674;32;20084;-68
2022/06/26 07:18:28;;;;;;;1.70;0.57;;;25.60;99.90;;;;;;4436881;32;20154;-68
2022/06/26 07:20:53;;;;;;;0.60;0.60;;;25.70;99.90;;;;;;4434663;32;20120;-67
2022/06/26 07:23:19;;;;;;;0.32;0.32;;;25.90;99.90;;;;;;4421408;32;20509;-69
2022/06/26 07:25:44;;;;;;;1.58;0.82;;;26.00;99.90;;;;;;4434272;32;20092;-66
2022/06/26 07:28:10;;;;;;;0.28;0.28;;;26.00;99.90;;;;;;4443136;32;20418;-68
2022/06/26 07:30:35;;;;;;;0.45;0.45;;;26.10;99.90;;;;;;4438670;32;20085;-68
2022/06/26 07:33:04;;;;;;;0.40;0.40;;;26.10;99.90;;;;;;4439791;32;20073;-68
2022/06/26 07:35:30;;;;;;;0.30;0.30;;;26.20;99.90;;;;;;4438928;32;20528;-68
2022/06/26 07:37:56;;;;;;;0.20;0.20;;;26.30;99.90;;;;;;4435865;32;20080;-68
2022/06/26 07:40:21;;;;;;;0.30;0.30;;;26.40;99.90;;;;;;4437345;32;20085;-68
2022/06/26 07:42:46;;;;;;;0.30;0.30;;;26.50;99.90;;;;;;4442549;32;20112;-68
2022/06/26 07:45:12;;;;;;;0.40;0.40;;;26.60;99.90;;;;;;4442253;32;20524;-68
2022/06/26 07:47:37;;;;;;;0.30;0.30;;;26.70;99.90;;;;;;4443691;32;20073;-68
2022/06/26 07:50:03;;;;;;;0.73;0.73;;;26.90;99.90;;;;;;4440892;32;20097;-68
2022/06/26 07:52:29;;;;;;;0.20;0.20;;;27.00;99.90;;;;;;4415522;32;20065;-68
2022/06/26 07:54:54;;;;;;;0.60;0.40;;;27.10;99.90;;;;;;4428138;32;20082;-68
2022/06/26 07:57:20;;;;;;;1.15;0.60;;;27.20;99.90;;;;;;4441625;32;20072;-68
2022/06/26 07:59:45;;;;;;;0.20;0.20;;;27.30;99.90;;;;;;4444166;32;20069;-68
2022/06/26 08:02:11;;;;;;;0.30;0.30;;;27.40;99.90;;;;;;4444710;32;20105;-68
2022/06/26 08:04:36;;;;;;;0.10;0.10;;;27.50;99.90;;;;;;4436306;32;20181;-68
2022/06/26 08:07:02;;;;;;;0.20;0.20;;;27.50;99.90;;;;;;4438150;32;20072;-68
2022/06/26 08:09:28;;;;;;;9.30;0.40;;;27.50;99.90;;;;;;4439966;32;20073;-68
2022/06/26 08:11:54;;;;;;;0.32;0.32;;;27.60;99.90;;;;;;4438316;32;20066;-68
2022/06/26 08:14:19;;;;;;;0.85;0.52;;;27.50;99.90;;;;;;4439925;32;20087;-68
2022/06/26 08:16:45;;;;;;;0.20;0.20;;;27.30;99.90;;;;;;4438830;32;20166;-69
2022/06/26 08:19:10;;;;;;;0.10;0.10;;;27.40;99.90;;;;;;4442418;32;20081;-68
2022/06/26 08:22:07;;;;;;;0.52;0.40;;;27.60;99.90;;;;;;4431079;32;20555;-69
2022/06/26 08:24:21;;;;;;;0.43;0.43;;;27.70;99.90;;;;;;4410825;32;21053;-68
2022/06/26 08:26:47;;;;;;;1.35;0.40;;;27.70;99.90;;;;;;4440437;32;20249;-68
2022/06/26 08:29:12;;;;;;;3.40;0.52;;;27.80;99.90;;;;;;4443637;32;20568;-68
2022/06/26 08:31:38;;;;;;;0.30;0.30;;;27.80;99.90;;;;;;4438335;32;20203;-68
2022/06/26 08:34:03;;;;;;;0.32;0.32;;;27.90;99.90;;;;;;4441479;32;20084;-68
2022/06/26 08:36:29;;;;;;;0.32;0.32;;;28.10;99.90;;;;;;4442206;32;20430;-68
2022/06/26 08:38:54;;;;;;;0.47;0.47;;;28.30;99.90;;;;;;4439033;32;20068;-68
2022/06/26 08:41:27;;;;;;;0.50;0.50;;;28.60;99.70;;;;;;4438676;32;20080;-68
2022/06/26 08:43:53;;;;;;;0.37;0.32;;;28.70;99.20;;;;;;4438308;32;20146;-68
2022/06/26 08:46:23;;;;;;;0.20;0.17;;;28.80;99.50;;;;;;4446900;32;20061;-68
2022/06/26 08:48:52;;;;;;;0.32;0.25;;;28.80;99.00;;;;;;4437911;32;20069;-69
2022/06/26 08:51:19;;;;;;;0.55;0.35;;;28.80;98.90;;;;;;4431455;32;20089;-69
2022/06/26 08:53:45;;;;;;;3.95;0.47;;;28.90;99.30;;;;;;4415557;32;20636;-69
2022/06/26 08:56:11;;;;;;;0.20;0.20;;;29.10;99.40;;;;;;4434789;32;20065;-69
2022/06/26 08:58:36;;;;;;;0.37;0.37;;;29.20;98.20;;;;;;4440831;32;20138;-68
2022/06/26 09:01:04;;;;;;;0.13;0.13;;;29.10;98.10;;;;;;4443573;32;20497;-68
2022/06/26 09:03:32;;;;;;;0.28;0.28;;;29.20;98.50;;;;;;4439029;32;20096;-68
2022/06/26 09:05:57;;;;;;;0.20;0.20;;;29.30;98.10;;;;;;4441474;32;20063;-68
2022/06/26 09:08:25;;;;;;;0.30;0.30;;;29.50;97.90;;;;;;4441614;32;20152;-69
2022/06/26 09:10:50;;;;;;;0.50;0.35;;;29.60;97.80;;;;;;4442183;32;20129;-70
2022/06/26 09:13:16;;;;;;;0.20;0.20;;;29.70;97.80;;;;;;4439936;32;20112;-69
2022/06/26 09:15:43;;;;;;;0.47;0.35;;;29.90;97.60;;;;;;4437273;32;20127;-68
2022/06/26 09:18:11;;;;;;;0.40;0.40;;;29.90;96.60;;;;;;4444816;32;20155;-68
2022/06/26 09:20:48;;;;;;;0.40;0.40;;;29.60;97.50;;;;;;4437894;32;20061;-67
2022/06/26 09:23:15;;;;;;;0.20;0.20;;;29.70;96.60;;;;;;4411349;32;20549;-67
2022/06/26 09:25:44;;;;;;;0.55;0.28;;;29.70;96.60;;;;;;4432113;32;21945;-67
2022/06/26 09:28:15;;;;;;;0.90;0.55;;;29.50;96.90;;;;;;4438046;32;20080;-68
2022/06/26 09:30:51;;;;;;;0.93;0.75;;;29.40;97.30;;;;;;4434310;32;20105;-67
2022/06/26 09:33:18;;;;;;;0.25;0.25;;;29.60;97.20;;;;;;4438788;32;20057;-68
2022/06/26 09:35:44;;;;;;;0.20;0.20;;;29.60;96.80;;;;;;4435481;32;20076;-69
2022/06/26 09:38:10;;;;;;;0.65;0.22;;;29.60;96.60;;;;;;4432315;32;20068;-69
2022/06/26 09:40:35;;;;;;;0.30;0.30;;;29.30;96.60;;;;;;4434997;32;20195;-68
2022/06/26 09:43:01;;;;;;;0.35;0.35;;;29.20;97.30;;;;;;4437202;32;20434;-68
2022/06/26 09:45:37;;;;;;;7.62;1.00;;;29.10;96.60;;;;;;4441708;32;20195;-68
2022/06/26 09:48:03;;;;;;;0.20;0.20;;;28.90;97.60;;;;;;4436744;32;20081;-68
2022/06/26 09:50:30;;;;;;;0.20;0.20;;;28.90;96.80;;;;;;4435099;32;20061;-68
2022/06/26 09:52:56;;;;;;;0.10;0.10;;;28.70;97.50;;;;;;4409742;32;20078;-68
2022/06/26 09:55:22;;;;;;;0.20;0.20;;;28.80;97.20;;;;;;4434121;32;20362;-68
2022/06/26 09:57:48;;;;;;;0.28;0.28;;;28.90;96.90;;;;;;4437265;32;20093;-68
2022/06/26 10:00:13;;;;;;;0.32;0.28;;;28.80;96.80;;;;;;4436495;32;20069;-68
2022/06/26 10:06:25;;;;;;;0.28;0.28;;;28.80;97.00;;;;;;4440057;32;20538;-68
2022/06/26 10:06:29;;;;;;;0.73;0.62;;;28.80;96.30;;;;;;4430603;32;20081;-68
2022/06/26 10:08:15;;;;;;;0.20;0.20;;;28.90;96.80;;;;;;4440026;32;20084;-68
2022/06/26 10:10:41;;;;;;;1.05;0.77;;;28.90;96.10;;;;;;4448383;32;20507;-68
2022/06/26 10:13:08;;;;;;;0.10;0.10;;;29.00;95.50;;;;;;4440755;32;20097;-68
2022/06/26 10:15:45;;;;;;;0.20;0.20;;;28.90;95.80;;;;;;4441278;32;20096;-68
2022/06/26 10:18:25;;;;;;;0.25;0.17;;;28.90;96.00;;;;;;4443811;32;20088;-68
2022/06/26 10:20:54;;;;;;;0.17;0.17;;;28.90;95.80;;;;;;4435718;32;20085;-68
2022/06/26 10:23:37;;;;;;;0.50;0.30;;;28.90;95.80;;;;;;4417083;32;20520;-68
2022/06/26 10:26:13;;;;;;;0.20;0.20;;;28.90;95.60;;;;;;4439856;32;20069;-68
2022/06/26 10:28:54;;;;;;;0.62;0.43;;;28.90;95.50;;;;;;4435723;32;20132;-68
2022/06/26 10:31:20;;;;;;;1.90;0.40;;;28.90;96.50;;;;;;4441439;32;20097;-69
2022/06/26 10:33:47;;;;;;;0.22;0.15;;;29.20;96.20;;;;;;4444957;32;20084;-68
2022/06/26 10:36:20;;;;;;;0.15;0.15;;;29.50;95.20;;;;;;4438974;32;20091;-68
2022/06/26 10:38:46;;;;;;;0.20;0.20;;;29.90;95.00;;;;;;4435692;32;20078;-68
2022/06/26 10:43:14;;;;;;;1.30;0.47;;;30.10;95.30;;;;;;4440057;32;20065;-68
2022/06/26 10:44:10;;;;;;;1.27;0.37;;;30.40;93.80;;;;;;4432168;32;20568;-68
2022/06/26 10:46:50;;;;;;;0.35;0.30;;;30.50;93.60;;;;;;4439096;32;20077;-68
2022/06/26 10:49:16;;;;;;;0.20;0.20;;;30.60;93.60;;;;;;4440025;32;20517;-68
2022/06/26 10:51:44;;;;;;;0.32;0.28;;;30.60;93.10;;;;;;4428138;32;20499;-68
2022/06/26 10:54:20;;;;;;;0.08;0.08;;;30.60;93.40;;;;;;4414774;32;20124;-68
2022/06/26 10:56:46;;;;;;;0.30;0.30;;;30.50;93.40;;;;;;4441952;32;20069;-68
2022/06/26 10:59:17;;;;;;;0.30;0.30;;;30.10;93.70;;;;;;4441417;32;20062;-68
2022/06/26 11:01:43;;;;;;;0.68;0.68;;;30.00;92.80;;;;;;4442677;32;20088;-68
2022/06/26 11:04:08;;;;;;;0.80;0.30;;;30.00;93.30;;;;;;4438620;32;20578;-68
2022/06/26 11:06:39;;;;;;;0.37;0.32;;;30.10;93.00;;;;;;4437804;32;20073;-68
2022/06/26 11:09:06;;;;;;;0.13;0.13;;;30.30;92.70;;;;;;4439722;32;20106;-68
2022/06/26 11:11:32;;;;;;;0.35;0.35;;;30.60;92.20;;;;;;4437362;32;20085;-68
2022/06/26 11:14:00;;;;;;;0.20;0.20;;;30.90;91.00;;;;;;4441730;32;20127;-68
2022/06/26 11:16:44;;;;;;;0.60;0.60;;;31.00;91.40;;;;;;4439633;32;20065;-68
2022/06/26 11:19:30;;;;;;;0.15;0.15;;;31.50;90.70;;;;;;4441229;32;20080;-68
2022/06/26 11:22:05;;;;;;;0.30;0.30;;;32.00;90.00;;;;;;4426655;32;20187;-68
2022/06/26 11:24:32;;;;;;;0.75;0.62;;;32.40;89.90;;;;;;4419578;32;20099;-68
2022/06/26 11:26:57;;;;;;;2.83;0.62;;;32.40;90.10;;;;;;4431454;32;20135;-68
2022/06/26 11:29:24;;;;;;;0.20;0.20;;;32.90;90.50;;;;;;4440952;32;20495;-68
2022/06/26 11:31:50;;;;;;;0.30;0.22;;;33.20;89.00;;;;;;4444852;32;20082;-69
2022/06/26 11:34:16;;;;;;;0.88;0.28;;;33.40;87.60;;;;;;4439571;32;20138;-68
2022/06/26 11:36:52;;;;;;;0.45;0.45;;;33.80;86.60;;;;;;4445189;32;20472;-69
2022/06/26 11:39:18;;;;;;;2.72;0.45;;;34.30;84.70;;;;;;4441350;32;20150;-68
2022/06/26 11:41:45;;;;;;;0.43;0.43;;;34.00;83.10;;;;;;4435607;32;20098;-68
2022/06/26 11:44:11;;;;;;;0.35;0.35;;;33.00;83.30;;;;;;4432503;32;20394;-68
2022/06/26 11:46:36;;;;;;;0.35;0.30;;;32.70;84.40;;;;;;4438430;32;20077;-68
2022/06/26 11:49:02;;;;;;;0.40;0.40;;;32.60;84.30;;;;;;4439644;32;20167;-68
2022/06/26 11:51:31;;;;;;;0.43;0.43;;;33.10;84.70;;;;;;4434863;32;20077;-68
2022/06/26 11:53:57;;;;;;;3.53;1.13;;;33.50;84.40;;;;;;4418645;32;20144;-69
2022/06/26 11:56:26;;;;;;;0.20;0.20;;;33.50;83.90;;;;;;4436754;32;20084;-69
2022/06/26 11:58:54;;;;;;;0.43;0.43;;;33.90;84.20;;;;;;4437533;32;20057;-69
2022/06/26 12:01:21;;;;;;;1.45;0.85;;;34.70;82.20;;;;;;4441414;32;20070;-69
2022/06/26 12:03:49;;;;;;;0.70;0.52;;;35.00;78.00;;;;;;4439065;32;20502;-69
2022/06/26 12:06:33;;;;;;;0.40;0.30;;;35.00;79.90;;;;;;4438665;32;20168;-69
2022/06/26 12:09:00;;;;;;;0.30;0.30;;;35.40;78.50;;;;;;4441755;32;20123;-69
2022/06/26 12:11:26;;;;;;;0.30;0.30;;;35.50;79.40;;;;;;4435176;32;20513;-69
2022/06/26 12:13:53;;;;;;;0.20;0.20;;;35.80;77.30;;;;;;4434974;32;20081;-69
2022/06/26 12:16:19;;;;;;;5.07;0.85;;;36.10;72.60;;;;;;4438433;32;20076;-69
2022/06/26 12:18:47;;;;;;;0.20;0.20;;;35.90;71.10;;;;;;4439928;32;20118;-70
2022/06/26 12:21:17;;;;;;;0.30;0.30;;;36.10;72.20;;;;;;4434361;32;20459;-69
2022/06/26 12:23:44;;;;;;;0.20;0.20;;;36.60;70.30;;;;;;4417733;32;20084;-69
2022/06/26 12:26:11;;;;;;;0.43;0.40;;;37.00;68.60;;;;;;4434951;32;20113;-69
2022/06/26 12:28:47;;;;;;;0.20;0.20;;;36.80;68.40;;;;;;4444022;32;20077;-69
2022/06/26 12:31:13;;;;;;;0.30;0.30;;;36.60;69.50;;;;;;4440991;32;20086;-69
2022/06/26 12:33:39;;;;;;;3.53;0.90;;;36.00;70.40;;;;;;4437139;32;21536;-69
2022/06/26 12:36:05;;;;;;;1.48;0.50;;;35.70;72.10;;;;;;4436005;32;20089;-69
2022/06/26 12:38:34;;;;;;;0.10;0.10;;;36.10;69.70;;;;;;4441121;32;20076;-69
2022/06/26 12:40:59;;;;;;;0.32;0.28;;;36.70;69.00;;;;;;4441632;32;20096;-69
2022/06/26 12:43:25;;;;;;;0.22;0.22;;;36.90;69.80;;;;;;4442618;32;20068;-69
2022/06/26 12:45:50;;;;;;;1.02;0.30;;;37.30;67.60;;;;;;4437218;32;20562;-69
2022/06/26 12:48:16;;;;;;;0.85;0.50;;;37.30;67.30;;;;;;4439256;32;20097;-69